Time;durP1;ratioP1;P1;durP2;ratioP2;P2;SDS_P1;SDS_P2;PMS_P1;PMS_P2;Temp;Humidity;BMP_temperature;BMP_pressure;BME280_temperature;BME280_humidity;BME280_pressure;Samples;Min_cycle;Max_cycle;Signal;HPM_P1;HPM_P2
2021/08/02 00:01:31;;;;;;;9.13;5.45;;;;;;;18.49;69.38;100183.78;1695063;83;21058;-84
2021/08/02 00:04:09;;;;;;;6.25;4.50;;;;;;;18.50;69.53;100184.66;1715703;83;22694;-84
2021/08/02 00:06:51;;;;;;;7.17;5.08;;;;;;;18.50;69.55;100191.31;1739325;82;21042;-84
2021/08/02 00:09:26;;;;;;;8.65;5.03;;;;;;;18.51;69.60;100190.42;1736115;82;21018;-84
2021/08/02 00:12:00;;;;;;;6.85;4.87;;;;;;;18.51;69.61;100190.42;1733797;82;21018;-83
2021/08/02 00:14:27;;;;;;;8.50;5.08;;;;;;;18.50;69.64;100192.19;1759750;81;21033;-83
2021/08/02 00:16:54;;;;;;;6.62;5.00;;;;;;;18.52;69.76;100186.84;1768251;79;22598;-83
2021/08/02 00:19:20;;;;;;;7.45;4.80;;;;;;;18.53;69.74;100189.48;1773906;80;21052;-84
2021/08/02 00:21:47;;;;;;;6.20;4.85;;;;;;;18.52;69.77;100187.70;1779055;80;21059;-84
2021/08/02 00:24:15;;;;;;;8.90;4.83;;;;;;;18.53;69.82;100183.28;1770059;79;22555;-84
2021/08/02 00:26:41;;;;;;;8.08;4.80;;;;;;;18.53;69.87;100185.48;1771820;80;21021;-83
2021/08/02 00:29:08;;;;;;;7.60;4.55;;;;;;;18.51;69.86;100185.97;1776049;80;22569;-83
2021/08/02 00:31:36;;;;;;;7.62;4.53;;;;;;;18.51;69.93;100189.09;1780887;79;21127;-84
2021/08/02 00:34:04;;;;;;;9.33;5.12;;;;;;;18.48;69.90;100187.34;1775963;80;20989;-83
2021/08/02 00:36:35;;;;;;;6.97;4.80;;;;;;;18.46;69.98;100191.81;1779603;80;21075;-83
2021/08/02 00:39:07;;;;;;;7.03;4.83;;;;;;;18.44;69.94;100190.50;1783854;80;21060;-84
2021/08/02 00:42:23;;;;;;;7.95;4.90;;;;;;;18.40;69.97;100186.14;1784833;80;21825;-84
2021/08/02 00:45:15;;;;;;;6.15;4.67;;;;;;;18.36;70.05;100192.42;1784089;80;21079;-84
2021/08/02 00:48:05;;;;;;;6.65;4.25;;;;;;;18.32;70.13;100193.38;1763757;80;21567;-84
2021/08/02 00:50:41;;;;;;;6.37;4.28;;;;;;;18.26;70.14;100189.03;1764822;80;21021;-84
2021/08/02 00:53:11;;;;;;;6.70;4.55;;;;;;;18.21;70.14;100188.67;1764145;81;21092;-84
2021/08/02 00:55:43;;;;;;;5.30;4.15;;;;;;;18.18;70.22;100188.70;1765379;81;22630;-84
2021/08/02 00:58:13;;;;;;;6.12;4.17;;;;;;;18.16;70.27;100182.53;1763338;81;21586;-84
2021/08/02 01:00:43;;;;;;;5.40;4.50;;;;;;;18.15;70.38;100184.75;1765468;81;21072;-84
2021/08/02 01:03:12;;;;;;;4.10;3.35;;;;;;;18.10;70.37;100179.51;1766718;80;21021;-83
2021/08/02 01:05:41;;;;;;;5.58;4.30;;;;;;;18.06;70.45;100172.47;1765021;81;21028;-83
2021/08/02 01:08:14;;;;;;;8.15;4.33;;;;;;;18.01;70.48;100171.66;1769024;80;21745;-83
2021/08/02 01:10:46;;;;;;;4.75;4.25;;;;;;;17.96;70.47;100167.73;1780872;79;21141;-84
2021/08/02 01:13:16;;;;;;;6.15;4.37;;;;;;;17.88;70.58;100170.48;1776271;80;21112;-84
2021/08/02 01:15:45;;;;;;;5.75;4.05;;;;;;;17.82;70.66;100168.34;1776402;80;21068;-84
2021/08/02 01:18:12;;;;;;;6.65;4.50;;;;;;;17.76;70.78;100161.78;1774752;80;21056;-84
2021/08/02 01:20:43;;;;;;;5.00;4.28;;;;;;;17.73;70.85;100168.47;1773634;80;21811;-84
2021/08/02 01:23:10;;;;;;;4.65;3.45;;;;;;;17.66;70.95;100167.23;1775604;80;21579;-84
2021/08/02 01:25:44;;;;;;;5.05;3.87;;;;;;;17.61;71.02;100165.08;1766085;80;20993;-84
2021/08/02 01:28:22;;;;;;;5.95;3.75;;;;;;;17.56;71.09;100164.25;1765322;81;21028;-84
2021/08/02 01:31:01;;;;;;;8.30;4.47;;;;;;;17.53;71.19;100162.97;1739671;80;21064;-84
2021/08/02 01:33:32;;;;;;;6.37;4.20;;;;;;;17.49;71.32;100163.46;1770066;80;22590;-84
2021/08/02 01:36:00;;;;;;;5.58;4.00;;;;;;;17.45;71.33;100162.17;1783062;80;21008;-84
2021/08/02 01:38:29;;;;;;;3.50;3.17;;;;;;;17.42;71.33;100163.56;1777969;79;21071;-84
2021/08/02 01:40:56;;;;;;;4.83;3.35;;;;;;;17.37;71.38;100158.73;1769786;80;21129;-84
2021/08/02 01:43:22;;;;;;;4.92;3.08;;;;;;;17.35;71.36;100160.54;1744085;81;21530;-84
2021/08/02 01:46:04;;;;;;;3.08;2.77;;;;;;;17.31;71.38;100153.05;1783630;78;21731;-85
2021/08/02 01:48:54;;;;;;;3.80;3.05;;;;;;;17.28;71.38;100161.05;1733545;81;21058;-84
2021/08/02 01:51:25;;;;;;;4.47;3.40;;;;;;;17.27;71.48;100164.17;1740309;82;21053;-84
2021/08/02 01:54:21;;;;;;;4.30;2.98;;;;;;;17.25;71.52;100160.65;1739682;82;21412;-85
2021/08/02 01:56:56;;;;;;;3.55;3.10;;;;;;;17.23;71.55;100167.77;1776518;80;21083;-84
2021/08/02 01:59:28;;;;;;;4.72;3.12;;;;;;;17.23;71.62;100173.52;1726156;80;41118;-84
2021/08/02 02:01:59;;;;;;;5.25;3.58;;;;;;;17.22;71.51;100169.98;1778255;80;21016;-83
2021/08/02 02:04:29;;;;;;;5.50;3.08;;;;;;;17.23;71.50;100162.87;1776379;80;21040;-83
2021/08/02 02:06:57;;;;;;;4.00;3.25;;;;;;;17.20;71.54;100162.47;1771611;79;20985;-83
2021/08/02 02:09:24;;;;;;;3.80;3.20;;;;;;;17.18;71.61;100165.60;1772988;80;20974;-83
2021/08/02 02:11:51;;;;;;;5.05;3.62;;;;;;;17.15;71.59;100160.77;1775316;80;22625;-83
2021/08/02 02:14:18;;;;;;;3.60;3.17;;;;;;;17.13;71.64;100163.89;1776242;80;21040;-83
2021/08/02 02:16:47;;;;;;;3.45;2.87;;;;;;;17.10;71.59;100166.16;1744184;80;20985;-84
2021/08/02 02:19:14;;;;;;;3.40;3.10;;;;;;;17.05;71.67;100166.64;1776364;79;21072;-84
2021/08/02 02:21:40;;;;;;;4.10;3.00;;;;;;;17.02;71.71;100166.66;1772370;80;21474;-83
2021/08/02 02:24:07;;;;;;;5.45;3.22;;;;;;;16.98;71.74;100165.81;1774534;80;22750;-84
2021/08/02 02:26:34;;;;;;;3.80;2.62;;;;;;;16.94;71.84;100165.87;1773210;80;21043;-83
2021/08/02 02:29:02;;;;;;;3.20;2.90;;;;;;;16.91;71.88;100169.42;1776126;80;21087;-84
2021/08/02 02:31:29;;;;;;;3.50;3.10;;;;;;;16.87;71.97;100170.36;1743774;80;21036;-83
2021/08/02 02:33:59;;;;;;;4.70;3.08;;;;;;;16.82;71.99;100181.05;1772614;80;20997;-84
2021/08/02 02:36:26;;;;;;;3.30;3.00;;;;;;;16.80;72.07;100182.81;1765227;81;21845;-83
2021/08/02 02:38:53;;;;;;;4.50;3.58;;;;;;;16.77;72.21;100177.52;1768943;80;21481;-84
2021/08/02 02:41:20;;;;;;;7.20;3.20;;;;;;;16.73;72.22;100176.25;1765496;81;21041;-83
2021/08/02 02:43:48;;;;;;;3.55;2.87;;;;;;;16.70;72.25;100175.38;1765372;81;21048;-83
2021/08/02 02:46:17;;;;;;;3.67;3.25;;;;;;;16.69;72.33;100175.39;1765414;81;21005;-84
2021/08/02 02:48:45;;;;;;;3.15;2.83;;;;;;;16.66;72.46;100173.63;1764754;81;22679;-83
2021/08/02 02:51:12;;;;;;;6.60;3.67;;;;;;;16.63;72.45;100176.33;1767983;80;21017;-84
2021/08/02 02:53:41;;;;;;;3.45;3.10;;;;;;;16.62;72.50;100173.22;1766160;81;20997;-84
2021/08/02 02:56:09;;;;;;;4.83;3.02;;;;;;;16.61;72.57;100177.22;1743830;80;21498;-84
2021/08/02 02:58:37;;;;;;;4.08;3.10;;;;;;;16.59;72.60;100175.02;1776383;80;21092;-84
2021/08/02 03:01:05;;;;;;;3.72;3.40;;;;;;;16.58;72.66;100178.14;1775792;80;21759;-84
2021/08/02 03:03:34;;;;;;;8.50;3.72;;;;;;;16.57;72.68;100177.69;1776095;80;21550;-83
2021/08/02 03:06:01;;;;;;;3.75;2.95;;;;;;;16.58;72.74;100179.92;1775132;80;21032;-83
2021/08/02 03:08:28;;;;;;;4.17;3.27;;;;;;;16.56;72.78;100174.61;1769557;80;21507;-84
2021/08/02 03:10:55;;;;;;;3.87;3.50;;;;;;;16.53;72.86;100181.27;1775637;79;21012;-83
2021/08/02 03:13:22;;;;;;;8.78;3.80;;;;;;;16.53;72.89;100177.28;1776335;80;22669;-84
2021/08/02 03:15:49;;;;;;;3.75;3.42;;;;;;;16.54;72.94;100178.20;1776418;80;21075;-84
2021/08/02 03:18:16;;;;;;;3.58;3.10;;;;;;;16.53;72.98;100179.94;1775025;80;21020;-83
2021/08/02 03:20:42;;;;;;;3.65;3.35;;;;;;;16.55;72.97;100183.92;1776105;80;21491;-83
2021/08/02 03:23:35;;;;;;;4.53;3.35;;;;;;;16.58;73.06;100183.91;1767815;79;21162;-84
2021/08/02 03:26:12;;;;;;;4.15;3.30;;;;;;;16.61;73.10;100178.55;1766859;81;21721;-85
2021/08/02 03:28:50;;;;;;;4.05;3.47;;;;;;;16.66;73.16;100183.37;1775362;80;21060;-83
2021/08/02 03:31:20;;;;;;;3.45;3.08;;;;;;;16.73;73.16;100185.55;1784435;79;21059;-83
2021/08/02 03:33:47;;;;;;;7.12;3.83;;;;;;;16.79;73.14;100188.14;1785016;80;21549;-83
2021/08/02 03:36:15;;;;;;;4.53;3.45;;;;;;;16.87;73.10;100186.31;1785037;80;21115;-83
2021/08/02 03:38:43;;;;;;;5.03;3.60;;;;;;;16.93;73.06;100188.93;1784846;80;21697;-83
2021/08/02 03:41:09;;;;;;;4.78;3.67;;;;;;;17.00;72.99;100189.27;1784720;80;21235;-83
2021/08/02 03:43:36;;;;;;;9.08;3.40;;;;;;;17.06;72.93;100189.66;1784625;79;21028;-83
2021/08/02 03:46:05;;;;;;;5.53;3.00;;;;;;;17.13;72.85;100186.04;1784926;79;21052;-83
2021/08/02 03:48:32;;;;;;;4.65;3.72;;;;;;;17.22;72.80;100189.93;1711804;83;21572;-83
2021/08/02 03:50:59;;;;;;;3.80;3.50;;;;;;;17.33;72.76;100192.48;1707521;83;21743;-83
2021/08/02 03:53:26;;;;;;;3.90;3.15;;;;;;;17.47;72.77;100196.29;1737393;82;21022;-83
2021/08/02 03:55:52;;;;;;;4.28;3.45;;;;;;;17.71;72.71;100194.23;1738405;81;21030;-83
2021/08/02 03:58:22;;;;;;;5.55;3.25;;;;;;;17.90;72.31;100195.77;1738099;82;21432;-84
2021/08/02 04:00:49;;;;;;;5.40;3.27;;;;;;;18.10;72.09;100200.81;1738134;82;21057;-84
2021/08/02 04:03:15;;;;;;;3.58;3.27;;;;;;;18.25;71.67;100205.91;1738116;82;21759;-84
2021/08/02 04:05:42;;;;;;;7.30;3.35;;;;;;;18.39;71.26;100207.47;1738157;82;21015;-83
2021/08/02 04:08:09;;;;;;;4.83;3.30;;;;;;;18.42;70.83;100209.64;1738081;82;21567;-85
2021/08/02 04:10:35;;;;;;;4.22;3.45;;;;;;;18.46;70.58;100215.34;1733907;82;21410;-83
2021/08/02 04:13:02;;;;;;;5.22;3.45;;;;;;;18.53;70.44;100208.61;1738082;82;21515;-82
2021/08/02 04:15:28;;;;;;;3.72;2.98;;;;;;;18.61;70.29;100216.00;1737870;81;21753;-83
2021/08/02 04:17:55;;;;;;;4.58;2.92;;;;;;;18.70;70.04;100218.52;1737725;82;21006;-83
2021/08/02 04:20:22;;;;;;;6.05;3.10;;;;;;;18.84;69.90;100216.97;1738076;81;21516;-83
2021/08/02 04:22:49;;;;;;;4.25;2.90;;;;;;;19.03;69.76;100217.09;1768223;80;21504;-84
2021/08/02 04:25:16;;;;;;;4.60;3.00;;;;;;;19.33;69.50;100212.08;1770414;80;21573;-83
2021/08/02 04:27:42;;;;;;;3.98;3.10;;;;;;;19.61;69.14;100215.08;1776869;79;21775;-83
2021/08/02 04:30:10;;;;;;;4.20;2.98;;;;;;;20.03;68.97;100211.97;1779600;79;21047;-83
2021/08/02 04:32:42;;;;;;;2.87;2.47;;;;;;;20.36;67.89;100211.21;1775589;79;21249;-84
2021/08/02 04:35:09;;;;;;;3.42;3.00;;;;;;;20.44;66.95;100208.78;1757059;80;21288;-84
2021/08/02 04:37:35;;;;;;;2.65;2.45;;;;;;;20.34;66.48;100214.81;1766067;80;21058;-83
2021/08/02 04:40:04;;;;;;;4.62;3.08;;;;;;;20.27;66.36;100215.88;1775903;79;21780;-83
2021/08/02 04:42:34;;;;;;;3.65;2.85;;;;;;;20.28;66.20;100216.31;1776059;80;21058;-82
2021/08/02 04:45:01;;;;;;;10.58;3.70;;;;;;;20.59;66.60;100216.45;1776127;80;21568;-83
2021/08/02 04:47:28;;;;;;;6.08;4.15;;;;;;;21.91;67.17;100220.91;1773675;80;21289;-87
2021/08/02 04:49:56;;;;;;;4.60;3.72;;;;;;;23.45;66.05;100214.48;1775940;79;21591;-83
2021/08/02 04:52:23;;;;;;;3.35;2.98;;;;;;;25.11;64.33;100212.83;1748436;80;21741;-83
2021/08/02 04:54:50;;;;;;;3.55;2.25;;;;;;;26.54;62.21;100211.14;1773705;80;21564;-83
2021/08/02 04:57:16;;;;;;;3.05;2.27;;;;;;;27.80;60.83;100209.11;1776059;80;21655;-85
2021/08/02 04:59:43;;;;;;;5.25;2.10;;;;;;;28.72;57.54;100217.92;1775902;80;21005;-84
2021/08/02 05:02:10;;;;;;;4.90;2.50;;;;;;;29.50;56.69;100223.63;1775787;80;21027;-84
2021/08/02 05:04:36;;;;;;;4.75;2.35;;;;;;;30.55;55.12;100218.69;1775758;80;21903;-84
2021/08/02 05:07:04;;;;;;;2.87;2.22;;;;;;;31.56;53.38;100226.33;1775982;79;21003;-83
2021/08/02 05:09:31;;;;;;;5.00;2.00;;;;;;;32.41;51.60;100221.55;1776220;80;21078;-84
2021/08/02 05:11:57;;;;;;;2.27;1.95;;;;;;;33.55;50.63;100220.51;1766326;79;21387;-85
2021/08/02 05:14:24;;;;;;;2.55;1.98;;;;;;;34.85;48.20;100219.00;1780595;80;21046;-85
2021/08/02 05:16:51;;;;;;;3.42;2.40;;;;;;;36.03;46.37;100215.98;1784276;80;21731;-85
2021/08/02 05:19:17;;;;;;;3.35;1.82;;;;;;;36.53;43.93;100213.24;1784203;80;21070;-84
2021/08/02 05:21:44;;;;;;;3.67;2.77;;;;;;;36.74;42.74;100211.77;1784301;79;21592;-85
2021/08/02 05:24:10;;;;;;;7.30;4.58;;;;;;;36.58;41.16;100219.17;1768649;80;21078;-84
2021/08/02 05:26:37;;;;;;;4.60;2.33;;;;;;;36.14;40.33;100211.77;1764461;81;21085;-84
2021/08/02 05:29:04;;;;;;;3.80;2.08;;;;;;;35.27;39.17;100220.44;1765195;81;21738;-84
2021/08/02 05:31:30;;;;;;;5.50;2.27;;;;;;;33.30;38.67;100221.60;1765218;80;21023;-84
2021/08/02 05:33:57;;;;;;;7.53;1.87;;;;;;;31.52;39.53;100221.59;1765199;81;21036;-89
2021/08/02 05:36:27;;;;;;;4.95;1.90;;;;;;;30.14;40.40;100225.47;1763952;80;21451;-88
2021/08/02 05:38:53;;;;;;;4.08;1.92;;;;;;;29.11;41.21;100223.73;1764848;80;20991;-84
2021/08/02 05:41:20;;;;;;;4.97;1.62;;;;;;;28.11;42.06;100219.58;1765389;80;22597;-84
2021/08/02 05:43:47;;;;;;;6.25;1.87;;;;;;;27.26;42.77;100221.47;1765336;80;20988;-84
2021/08/02 05:46:13;;;;;;;4.10;2.00;;;;;;;26.56;43.66;100214.63;1776991;80;21034;-85
2021/08/02 05:48:42;;;;;;;4.10;1.98;;;;;;;25.94;44.38;100216.74;1776196;79;21646;-84
2021/08/02 05:51:08;;;;;;;5.17;2.45;;;;;;;25.44;45.05;100229.83;1772635;80;21054;-84
2021/08/02 05:53:35;;;;;;;7.70;3.70;;;;;;;24.90;45.64;100220.89;1784957;80;21770;-84
2021/08/02 05:56:02;;;;;;;3.17;2.00;;;;;;;24.44;46.36;100226.37;1784934;80;21033;-84
2021/08/02 05:58:28;;;;;;;4.75;2.92;;;;;;;23.98;47.02;100229.53;1784879;80;21474;-84
2021/08/02 06:00:55;;;;;;;5.30;3.90;;;;;;;23.62;47.73;100231.79;1784888;79;21366;-84
2021/08/02 06:03:22;;;;;;;4.05;3.08;;;;;;;23.26;48.25;100232.20;1784890;80;21022;-84
2021/08/02 06:05:48;;;;;;;5.70;2.22;;;;;;;22.95;48.91;100234.57;1765808;79;22007;-84
2021/08/02 06:08:15;;;;;;;4.05;2.08;;;;;;;22.73;49.47;100233.55;1765192;81;21031;-84
2021/08/02 06:10:42;;;;;;;4.42;2.10;;;;;;;22.69;50.08;100230.98;1770092;80;21528;-83
2021/08/02 06:13:08;;;;;;;4.42;2.35;;;;;;;22.82;50.54;100231.42;1780539;80;21541;-84
2021/08/02 06:15:35;;;;;;;3.35;2.92;;;;;;;23.08;50.86;100223.84;1776323;79;21034;-84
2021/08/02 06:18:01;;;;;;;2.95;2.22;;;;;;;23.38;50.75;100216.11;1776316;80;21748;-84
2021/08/02 06:20:28;;;;;;;5.03;2.15;;;;;;;23.68;50.53;100219.45;1776186;80;20976;-84
2021/08/02 06:22:55;;;;;;;3.05;2.10;;;;;;;23.87;50.40;100212.94;1776360;79;21019;-84
2021/08/02 06:25:22;;;;;;;6.62;3.22;;;;;;;24.10;50.34;100213.85;1776263;79;21651;-84
2021/08/02 06:27:48;;;;;;;3.52;2.15;;;;;;;24.23;50.05;100211.98;1776383;79;21039;-84
2021/08/02 06:30:16;;;;;;;2.40;1.82;;;;;;;24.34;49.90;100216.91;1776498;79;21742;-84
2021/08/02 06:32:43;;;;;;;2.50;2.10;;;;;;;24.39;49.80;100216.73;1775890;80;21014;-84
2021/08/02 06:35:10;;;;;;;3.05;1.75;;;;;;;24.28;49.62;100212.26;1776262;79;21046;-84
2021/08/02 06:37:41;;;;;;;10.48;2.33;;;;;;;24.18;49.57;100208.59;1776249;80;21470;-84
2021/08/02 06:40:12;;;;;;;2.77;2.20;;;;;;;24.06;49.62;100206.37;1776050;80;21015;-85
2021/08/02 06:42:39;;;;;;;2.83;1.77;;;;;;;23.79;49.55;100207.00;1776375;79;21767;-84
2021/08/02 06:45:06;;;;;;;2.62;1.57;;;;;;;23.48;49.77;100215.72;1776161;79;21552;-84
2021/08/02 06:47:33;;;;;;;6.40;2.58;;;;;;;23.36;50.09;100215.29;1776334;79;21081;-85
2021/08/02 06:49:59;;;;;;;5.30;3.22;;;;;;;23.26;49.96;100213.41;1776205;79;21536;-84
2021/08/02 06:52:26;;;;;;;3.27;1.95;;;;;;;23.20;49.72;100214.95;1775970;79;21043;-84
2021/08/02 06:54:53;;;;;;;2.72;1.52;;;;;;;22.97;49.71;100215.27;1776225;80;21750;-84
2021/08/02 06:57:20;;;;;;;4.05;1.60;;;;;;;22.84;49.96;100226.91;1776489;79;21047;-85
2021/08/02 06:59:47;;;;;;;2.00;1.70;;;;;;;22.79;50.02;100223.97;1776427;79;21014;-84
2021/08/02 07:02:14;;;;;;;3.62;1.45;;;;;;;22.55;50.12;100225.66;1776325;79;21425;-84
2021/08/02 07:04:41;;;;;;;4.80;1.85;;;;;;;22.55;50.12;100225.66;1776534;79;20987;-84
2021/08/02 07:07:07;;;;;;;5.47;2.52;;;;;;;22.55;50.28;100236.39;1780406;80;21785;-84
2021/08/02 07:09:36;;;;;;;4.58;1.30;;;;;;;22.48;50.32;100240.59;1784643;80;21053;-84
2021/08/02 07:12:03;;;;;;;4.72;1.72;;;;;;;22.48;50.32;100240.59;1784078;80;21105;-84
2021/08/02 07:14:30;;;;;;;4.97;1.65;;;;;;;22.45;49.93;100251.91;1784202;80;21061;-85
2021/08/02 07:16:57;;;;;;;3.05;1.40;;;;;;;22.32;49.63;100239.35;1784307;79;21026;-84
2021/08/02 07:19:23;;;;;;;5.62;1.42;;;;;;;22.23;49.38;100247.65;1783965;79;21868;-84
2021/08/02 07:21:50;;;;;;;2.98;1.62;;;;;;;22.13;49.42;100240.36;1784164;80;21559;-84
2021/08/02 07:24:17;;;;;;;5.12;1.40;;;;;;;22.02;49.47;100241.16;1761008;80;21074;-84
2021/08/02 07:26:43;;;;;;;4.72;1.75;;;;;;;21.97;49.73;100242.61;1764777;80;21285;-85
2021/08/02 07:29:10;;;;;;;3.45;1.60;;;;;;;21.98;49.80;100245.73;1764944;80;21043;-85
2021/08/02 07:31:37;;;;;;;7.35;1.40;;;;;;;21.97;49.77;100244.42;1764706;81;21738;-85
2021/08/02 07:34:03;;;;;;;3.08;1.45;;;;;;;21.98;49.97;100247.50;1764632;81;21552;-84
2021/08/02 07:36:30;;;;;;;5.15;1.67;;;;;;;21.91;49.60;100245.02;1783043;79;21003;-84
2021/08/02 07:38:57;;;;;;;3.80;1.55;;;;;;;21.84;49.43;100249.27;1784529;80;21058;-84
2021/08/02 07:41:24;;;;;;;2.58;1.60;;;;;;;21.79;49.53;100254.78;1784797;79;21067;-84
2021/08/02 07:43:51;;;;;;;2.05;1.20;;;;;;;21.72;49.18;100255.88;1784902;80;21809;-84
2021/08/02 07:46:18;;;;;;;5.92;1.77;;;;;;;21.63;49.12;100253.45;1784797;80;21047;-84
2021/08/02 07:48:44;;;;;;;4.37;1.62;;;;;;;21.58;49.46;100258.05;1784907;80;21054;-84
2021/08/02 07:51:11;;;;;;;6.22;1.37;;;;;;;21.64;49.72;100261.89;1784835;80;21026;-84
2021/08/02 07:53:38;;;;;;;5.37;1.70;;;;;;;21.77;49.98;100265.97;1784929;79;21054;-84
2021/08/02 07:56:04;;;;;;;6.08;4.75;;;;;;;21.96;49.81;100258.30;1784817;80;21716;-84
2021/08/02 07:58:31;;;;;;;6.58;2.10;;;;;;;22.07;49.36;100278.95;1784774;79;21480;-84
2021/08/02 08:00:58;;;;;;;3.62;2.92;;;;;;;22.10;48.90;100268.12;1784783;80;21023;-84
2021/08/02 08:03:25;;;;;;;6.75;2.40;;;;;;;22.17;48.94;100278.20;1784861;79;21062;-84
2021/08/02 08:05:52;;;;;;;5.28;1.80;;;;;;;22.29;48.74;100281.86;1764355;79;21528;-84
2021/08/02 08:08:20;;;;;;;4.05;1.82;;;;;;;22.30;48.88;100280.95;1765559;81;21949;-84
2021/08/02 08:10:47;;;;;;;5.97;2.77;;;;;;;22.35;48.84;100281.27;1765436;80;20988;-84
2021/08/02 08:13:14;;;;;;;2.80;1.30;;;;;;;22.35;48.51;100279.45;1784417;80;22247;-84
2021/08/02 08:15:40;;;;;;;4.05;1.85;;;;;;;22.41;48.50;100277.05;1784851;80;21033;-84
2021/08/02 08:18:07;;;;;;;3.87;1.40;;;;;;;22.69;48.19;100253.80;1784974;80;21504;-84
2021/08/02 08:20:33;;;;;;;4.85;1.62;;;;;;;22.69;48.19;100253.80;1784907;80;21805;-84
2021/08/02 08:23:00;;;;;;;2.50;1.55;;;;;;;23.21;48.09;100263.70;1784786;80;21007;-84
2021/08/02 08:25:27;;;;;;;5.17;1.70;;;;;;;23.57;47.53;100266.00;1784888;79;21006;-84
2021/08/02 08:27:53;;;;;;;4.62;1.87;;;;;;;23.62;46.87;100252.80;1784768;79;21567;-84
2021/08/02 08:30:20;;;;;;;2.33;1.30;;;;;;;23.81;46.71;100273.66;1784988;80;21006;-84
2021/08/02 08:32:47;;;;;;;3.98;1.60;;;;;;;23.93;46.79;100269.62;1784803;80;21726;-84
2021/08/02 08:35:14;;;;;;;2.05;1.67;;;;;;;24.05;46.44;100273.20;1784694;80;21011;-84
2021/08/02 08:37:41;;;;;;;1.85;1.10;;;;;;;24.06;46.05;100263.73;1784641;79;21062;-84
2021/08/02 08:40:09;;;;;;;4.37;1.22;;;;;;;24.22;45.80;100267.16;1784647;80;21469;-84
2021/08/02 08:42:37;;;;;;;2.72;1.10;;;;;;;24.39;45.46;100271.40;1756110;79;21061;-84
2021/08/02 08:45:05;;;;;;;2.58;1.47;;;;;;;24.49;45.41;100264.31;1763019;80;21962;-84
2021/08/02 08:47:34;;;;;;;3.67;1.47;;;;;;;24.66;45.19;100271.72;1779050;80;21038;-84
2021/08/02 08:50:08;;;;;;;2.70;1.40;;;;;;;24.71;44.93;100288.09;1768707;80;21482;-85
2021/08/02 08:52:36;;;;;;;5.55;2.35;;;;;;;24.60;44.58;100276.89;1775975;79;21472;-86
2021/08/02 08:55:12;;;;;;;3.58;1.30;;;;;;;24.45;44.31;100287.77;1776373;79;20995;-86
2021/08/02 08:57:40;;;;;;;4.42;1.37;;;;;;;24.22;44.16;100294.92;1776317;79;21766;-85
2021/08/02 09:00:20;;;;;;;3.22;1.35;;;;;;;23.88;44.14;100291.79;1776150;80;21102;-86
2021/08/02 09:02:46;;;;;;;2.85;1.57;;;;;;;23.64;44.38;100293.92;1776424;79;21520;-86
2021/08/02 09:05:13;;;;;;;2.70;1.10;;;;;;;23.49;44.68;100303.89;1776388;80;21497;-86
2021/08/02 09:07:43;;;;;;;6.12;1.30;;;;;;;23.29;44.72;100304.14;1776447;79;20995;-86
2021/08/02 09:10:12;;;;;;;8.03;1.37;;;;;;;23.12;44.85;100306.50;1776239;80;21814;-86
2021/08/02 09:12:56;;;;;;;2.55;1.42;;;;;;;22.99;44.94;100300.66;1775997;80;21121;-86
2021/08/02 09:15:43;;;;;;;3.05;1.10;;;;;;;22.90;45.05;100298.28;1765551;80;21577;-83
2021/08/02 09:18:17;;;;;;;3.55;1.40;;;;;;;22.90;45.05;100298.28;1763990;80;21032;-84
2021/08/02 09:20:43;;;;;;;3.50;1.42;;;;;;;22.81;45.39;100306.16;1764845;81;21059;-84
2021/08/02 09:23:12;;;;;;;3.58;1.50;;;;;;;22.81;45.39;100306.16;1765411;81;21760;-84
2021/08/02 09:25:51;;;;;;;6.08;1.30;;;;;;;22.74;45.51;100303.73;1765095;80;21038;-83
2021/08/02 09:28:23;;;;;;;5.75;1.40;;;;;;;22.68;45.62;100288.23;1763876;81;21011;-85
2021/08/02 09:31:04;;;;;;;9.68;2.02;;;;;;;22.67;45.69;100299.91;1764877;81;21047;-85
2021/08/02 09:33:47;;;;;;;1.65;0.98;;;;;;;22.63;45.92;100303.59;1765132;80;21011;-84
2021/08/02 09:36:15;;;;;;;5.67;1.62;;;;;;;22.59;45.81;100309.99;1779991;80;21718;-84
2021/08/02 09:38:42;;;;;;;5.17;1.47;;;;;;;22.49;46.00;100302.70;1783673;80;21520;-84
2021/08/02 09:41:19;;;;;;;6.55;1.57;;;;;;;22.43;45.89;100311.39;1784589;80;21689;-84
2021/08/02 09:43:54;;;;;;;4.20;1.55;;;;;;;22.35;45.98;100308.95;1784734;79;21010;-85
2021/08/02 09:46:20;;;;;;;2.92;1.12;;;;;;;22.32;46.14;100312.62;1784973;80;21022;-85
2021/08/02 09:48:47;;;;;;;2.00;1.20;;;;;;;22.29;45.41;100311.83;1784915;80;21310;-84
2021/08/02 09:51:16;;;;;;;2.42;1.47;;;;;;;22.18;45.29;100315.27;1762722;79;21018;-85
2021/08/02 09:53:50;;;;;;;7.42;1.30;;;;;;;22.11;45.40;100314.55;1784978;80;21015;-84
2021/08/02 09:56:20;;;;;;;2.87;1.80;;;;;;;22.06;45.51;100320.06;1784985;80;21057;-85
2021/08/02 09:58:47;;;;;;;3.67;1.62;;;;;;;22.08;45.78;100314.20;1783709;80;21054;-85
2021/08/02 10:01:15;;;;;;;8.03;1.72;;;;;;;22.16;45.77;100317.98;1784857;80;21793;-85
2021/08/02 10:03:42;;;;;;;12.23;4.50;;;;;;;22.23;45.77;100316.02;1784844;79;21015;-84
2021/08/02 10:06:11;;;;;;;4.12;1.90;;;;;;;22.29;45.82;100326.10;1784734;80;21035;-84
2021/08/02 10:08:37;;;;;;;15.50;2.22;;;;;;;22.39;45.58;100324.48;1778796;80;21050;-84
2021/08/02 10:11:04;;;;;;;3.30;1.37;;;;;;;22.47;45.21;100325.15;1784531;80;21022;-84
2021/08/02 10:13:44;;;;;;;3.08;1.47;;;;;;;22.53;44.92;100320.05;1784327;80;21758;-84
2021/08/02 10:16:14;;;;;;;3.52;1.62;;;;;;;22.61;45.09;100308.61;1784705;80;21030;-84
2021/08/02 10:18:41;;;;;;;8.05;1.65;;;;;;;22.79;44.83;100313.39;1784912;80;21093;-84
2021/08/02 10:21:10;;;;;;;9.65;1.65;;;;;;;22.93;44.73;100318.77;1762662;80;21414;-84
2021/08/02 10:23:38;;;;;;;7.85;1.82;;;;;;;23.04;44.31;100323.34;1784855;80;21081;-84
2021/08/02 10:26:29;;;;;;;5.28;1.55;;;;;;;23.15;43.96;100322.52;1784879;80;21835;-84
2021/08/02 10:28:58;;;;;;;4.28;1.80;;;;;;;23.21;43.45;100330.36;1784811;80;21062;-84
2021/08/02 10:31:27;;;;;;;8.15;2.52;;;;;;;23.31;43.49;100330.91;1784778;80;21034;-84
2021/08/02 10:33:55;;;;;;;3.47;1.65;;;;;;;23.48;43.13;100323.61;1776509;80;21089;-84
2021/08/02 10:36:22;;;;;;;3.55;1.57;;;;;;;23.48;43.13;100323.61;1784919;80;21159;-84
2021/08/02 10:38:52;;;;;;;5.53;3.20;;;;;;;23.61;43.11;100326.30;1785021;80;21780;-84
2021/08/02 10:41:30;;;;;;;5.70;1.70;;;;;;;23.62;42.95;100309.70;1784857;80;21208;-84
2021/08/02 10:44:16;;;;;;;3.37;1.70;;;;;;;23.77;42.86;100336.02;1761739;80;21012;-84
2021/08/02 10:46:43;;;;;;;7.60;2.10;;;;;;;23.71;42.71;100318.78;1765424;80;21505;-84
2021/08/02 10:49:16;;;;;;;6.05;3.60;;;;;;;23.92;43.01;100331.05;1769976;80;21024;-84
2021/08/02 10:51:50;;;;;;;;;;;;;;;24.17;42.71;100321.11;1768157;80;21722;-84
2021/08/02 10:54:17;;;;;;;5.92;3.92;;;;;;;24.45;42.31;100317.36;1765553;81;20497;-84
2021/08/02 10:56:53;;;;;;;4.50;2.52;;;;;;;24.61;41.90;100333.82;1765630;80;21070;-84
2021/08/02 10:59:13;;;;;;;5.28;2.95;;;;;;;24.52;41.85;100322.08;1762882;81;21490;-84
2021/08/02 11:01:48;;;;;;;6.92;2.47;;;;;;;24.24;41.87;100329.83;1765532;81;21026;-85
2021/08/02 11:04:17;;;;;;;4.25;1.65;;;;;;;24.13;42.13;100331.58;1764690;81;21771;-84
2021/08/02 11:06:47;;;;;;;4.87;2.35;;;;;;;24.10;42.19;100337.53;1765354;80;21051;-84
2021/08/02 11:09:13;;;;;;;7.15;2.00;;;;;;;24.08;42.36;100334.90;1765251;81;21043;-84
2021/08/02 11:11:40;;;;;;;8.05;1.80;;;;;;;24.14;42.38;100344.11;1765302;81;21046;-84
2021/08/02 11:14:12;;;;;;;6.60;1.75;;;;;;;24.24;42.25;100342.80;1765492;80;20995;-84
2021/08/02 11:16:42;;;;;;;3.58;1.75;;;;;;;24.56;41.71;100341.19;1765444;80;21805;-84
2021/08/02 11:19:29;;;;;;;4.30;1.87;;;;;;;24.56;41.71;100341.19;1760996;81;21110;-84
2021/08/02 11:22:02;;;;;;;9.20;5.85;;;;;;;24.77;41.30;100339.45;1765157;81;21074;-84
2021/08/02 11:24:32;;;;;;;7.30;2.05;;;;;;;24.93;40.14;100339.23;1765256;80;21004;-85
2021/08/02 11:27:02;;;;;;;7.65;3.00;;;;;;;25.12;39.92;100335.78;1736595;81;21027;-84
2021/08/02 11:29:32;;;;;;;3.42;1.98;;;;;;;25.46;39.91;100346.02;1713522;83;21780;-84
2021/08/02 11:32:11;;;;;;;8.25;1.67;;;;;;;25.83;39.50;100347.10;1715254;83;21031;-84
2021/08/02 11:34:47;;;;;;;7.90;1.45;;;;;;;26.15;39.08;100353.75;1715640;83;21039;-84